Lincoln, NE (68512)

8:22 PM CDT on July 29, 2016 (GMT -0500)
Southwood | | Change Station

Elev 1240 ft 40.76 °N, 96.69 °W | Updated 15 minutes ago

Clear
Clear
77.5 °F
Feels Like 79 °F
N
1.7
Wind Variable Wind from ESE

Today
High -- | Low -- °F
--% Chance of Precip.
Yesterday
High -- | Low -- °F
Precip. -- in
Pressure 29.99 in
Visibility 10.0 miles
Clouds Clear
Heat Index 79 °F
Dew Point 57 °F
Humidity 50%
Rainfall in
Snow Depth Not available.
6:21 AM 8:44 PM
Waning Crescent, 17% visible
METAR KLNK 300054Z 03007KT 10SM CLR 26/16 A3001 RMK AO2 SLP153 T02560156
Pressure 29.99 in
Visibility 10.0 miles
Clouds Clear
Heat Index 79 °F
Dew Point 57 °F
Humidity 50%
Rainfall in
Snow Depth Not available.
6:21 AM 8:44 PM
Waning Crescent, 17% visible
METAR KLNK 300054Z 03007KT 10SM CLR 26/16 A3001 RMK AO2 SLP153 T02560156

10-Day Weather Forecast

Almanac

Astronomy

Jul. 29, 2016 Rise Set
Actual Time
Civil Twilight
Nautical Twilight
Astronomical Twilight
Moon
Length of Visible Light
Length of Day
Tomorrow will be .
, % of the Moon is Illuminated

Today's Extremes

State Highs State Lows

Community

WunderPhotos

Upload Photos

1,928,476 photos uploaded!

WunderBlog® & News

Nearby

Air Quality

  Air Quality AQ Index Pollutant
Not available.

Snow Depth

Station Depth Elevation

Earthquake Activity

City Distance Mag. Time & Date
Minimum magnitude displayed is 2.5.

Coastal Water Temperatures

Place Temperature

Stations

Nearby Weather Stations

Station Location Temp. Windchill Dew Point Humidity Wind Precip. Elev Updated Type
                   

Watches & Warnings

There are currently no watches in effect.